Time;durP1;ratioP1;P1;durP2;ratioP2;P2;SDS_P1;SDS_P2;PMS_P1;PMS_P2;Temp;Humidity;BMP_temperature;BMP_pressure;BME280_temperature;BME280_humidity;BME280_pressure;Samples;Min_cycle;Max_cycle;Signal;HPM_P1;HPM_P2
2021/12/11 00:01:49;;;;;;;13.02;6.25;;;;;;;5.33;58.55;100442.81;4940064;28;119145;-69
2021/12/11 00:04:23;;;;;;;12.93;6.32;;;;;;;5.30;58.62;100448.19;4935296;28;120062;-69
2021/12/11 00:06:53;;;;;;;18.08;6.45;;;;;;;5.29;59.00;100459.56;4935060;28;124213;-69
2021/12/11 00:09:36;;;;;;;15.25;6.40;;;;;;;5.26;58.62;100464.00;4934154;28;124211;-69
2021/12/11 00:12:10;;;;;;;10.57;6.15;;;;;;;5.24;58.75;100463.19;4939648;28;119311;-68
2021/12/11 00:14:41;;;;;;;13.20;6.90;;;;;;;5.23;58.77;100469.34;4943660;28;119025;-69
2021/12/11 00:17:08;;;;;;;12.77;6.85;;;;;;;5.22;58.90;100470.25;4936864;28;124241;-68
2021/12/11 00:19:39;;;;;;;17.15;6.82;;;;;;;5.21;58.77;100478.19;4941045;28;123660;-69
2021/12/11 00:22:16;;;;;;;14.48;6.63;;;;;;;5.20;59.07;100487.81;4940417;28;120317;-72
2021/12/11 00:24:44;;;;;;;12.90;6.32;;;;;;;5.18;58.77;100494.88;4938776;28;120075;-70
2021/12/11 00:27:16;;;;;;;13.52;6.60;;;;;;;5.17;58.52;100502.81;4943993;28;123681;-70
2021/12/11 00:29:44;;;;;;;12.07;6.43;;;;;;;5.15;58.81;100505.47;4936816;28;122710;-70
2021/12/11 00:32:20;;;;;;;12.88;6.43;;;;;;;5.14;58.88;100514.25;4947864;28;119122;-70
2021/12/11 00:34:47;;;;;;;13.85;6.68;;;;;;;5.13;58.83;100511.69;4941886;28;119376;-69
2021/12/11 00:37:17;;;;;;;11.00;5.95;;;;;;;5.11;58.85;100519.59;4941043;28;123901;-69
2021/12/11 00:39:47;;;;;;;13.57;6.35;;;;;;;5.11;58.69;100530.09;4943651;28;126320;-69
2021/12/11 00:42:15;;;;;;;13.40;6.30;;;;;;;5.10;58.96;100525.72;4938352;28;119811;-69
2021/12/11 00:44:47;;;;;;;13.57;6.57;;;;;;;5.08;58.85;100543.28;4943564;28;119256;-69
2021/12/11 00:47:15;;;;;;;14.85;6.45;;;;;;;5.07;58.92;100545.06;4946175;28;124310;-69
2021/12/11 00:49:52;;;;;;;15.07;6.68;;;;;;;5.06;58.86;100547.72;4939168;28;124306;-69
2021/12/11 00:52:43;;;;;;;12.25;6.70;;;;;;;5.03;58.86;100553.06;4943072;28;119156;-69
2021/12/11 00:55:29;;;;;;;13.95;6.43;;;;;;;5.02;59.06;100556.56;4945019;28;118733;-69
2021/12/11 00:58:01;;;;;;;13.18;6.65;;;;;;;5.00;58.86;100558.38;4948587;28;124040;-69
2021/12/11 01:00:33;;;;;;;15.07;6.82;;;;;;;4.96;59.06;100569.88;4945591;28;124310;-69
2021/12/11 01:03:00;;;;;;;14.52;7.18;;;;;;;4.96;58.87;100583.00;4929374;28;119037;-69
2021/12/11 01:05:38;;;;;;;13.57;6.35;;;;;;;4.95;59.18;100581.25;4944349;28;119893;-69
2021/12/11 01:08:31;;;;;;;14.65;6.55;;;;;;;4.92;59.20;100582.22;4946675;28;123729;-69
2021/12/11 01:11:25;;;;;;;12.02;6.30;;;;;;;4.90;58.97;100589.25;4940840;28;124211;-69
2021/12/11 01:14:08;;;;;;;13.48;6.57;;;;;;;4.88;58.87;100601.56;4944290;28;120266;-69
2021/12/11 01:16:37;;;;;;;12.82;6.22;;;;;;;4.86;59.04;100614.72;4943616;28;119899;-68
2021/12/11 01:19:06;;;;;;;14.50;6.57;;;;;;;4.84;58.87;100616.53;4945528;28;124654;-69
2021/12/11 01:24:16;;;;;;;14.40;7.22;;;;;;;4.79;59.21;100621.00;4943588;28;119708;-69
2021/12/11 01:26:48;;;;;;;14.07;6.82;;;;;;;4.78;59.11;100624.53;4944559;28;118473;-69
2021/12/11 01:29:19;;;;;;;16.35;6.75;;;;;;;4.76;59.08;100631.56;4945368;28;124124;-69
2021/12/11 01:31:49;;;;;;;11.13;6.15;;;;;;;4.77;58.95;100645.56;4944428;28;123707;-69
2021/12/11 01:34:17;;;;;;;13.65;6.82;;;;;;;4.74;58.96;100646.50;4947843;28;119360;-69
2021/12/11 01:36:45;;;;;;;19.33;7.78;;;;;;;4.74;59.01;100651.72;4946648;28;118280;-69
2021/12/11 01:39:16;;;;;;;16.13;7.45;;;;;;;4.72;59.24;100656.16;4943918;28;123601;-69
2021/12/11 01:41:46;;;;;;;12.43;7.18;;;;;;;4.72;59.25;100663.19;4945075;28;123030;-69
2021/12/11 01:44:19;;;;;;;16.05;7.35;;;;;;;4.72;59.23;100674.53;4946877;28;119129;-69
2021/12/11 01:46:47;;;;;;;15.18;7.18;;;;;;;4.72;59.15;100674.53;4937068;28;119657;-70
2021/12/11 01:49:21;;;;;;;13.43;6.45;;;;;;;4.72;59.15;100679.78;4942067;28;124119;-70
2021/12/11 01:51:54;;;;;;;16.88;6.93;;;;;;;4.71;59.05;100680.69;4939618;28;123510;-69
2021/12/11 01:54:23;;;;;;;17.08;6.95;;;;;;;4.70;59.26;100686.81;4922502;28;118951;-69
2021/12/11 01:57:00;;;;;;;14.43;7.20;;;;;;;4.71;59.15;100692.91;4946018;28;119304;-68
2021/12/11 01:59:37;;;;;;;16.63;7.30;;;;;;;4.71;59.38;100698.16;4943944;28;125547;-69
2021/12/11 02:02:31;;;;;;;15.95;7.57;;;;;;;4.71;59.31;100703.41;4944884;28;124055;-69
2021/12/11 02:04:59;;;;;;;18.17;7.55;;;;;;;4.72;59.39;100706.00;4942621;28;120302;-69
2021/12/11 02:07:44;;;;;;;16.98;7.30;;;;;;;4.73;59.63;100710.38;4945904;28;118870;-69
2021/12/11 02:10:28;;;;;;;15.75;7.10;;;;;;;4.72;59.65;100716.50;4945286;28;123424;-69
2021/12/11 02:12:58;;;;;;;14.75;7.50;;;;;;;4.72;59.30;100721.75;4943758;28;124009;-70
2021/12/11 02:15:34;;;;;;;14.85;7.25;;;;;;;4.73;59.50;100733.97;4946234;28;119114;-69
2021/12/11 02:18:11;;;;;;;16.23;7.40;;;;;;;4.72;59.33;100737.47;4943351;28;119010;-69
2021/12/11 02:20:51;;;;;;;16.23;7.70;;;;;;;4.72;59.54;100736.63;4944660;28;123783;-69
2021/12/11 02:23:19;;;;;;;15.35;7.68;;;;;;;4.71;59.37;100746.28;4945674;28;123756;-70
2021/12/11 02:25:49;;;;;;;14.15;6.85;;;;;;;4.72;59.45;100752.38;4941328;28;119456;-70
2021/12/11 02:28:28;;;;;;;14.73;7.18;;;;;;;4.70;59.46;100755.03;4947297;28;118531;-70
2021/12/11 02:31:06;;;;;;;14.95;7.10;;;;;;;4.68;59.55;100757.69;4945443;28;124587;-69
2021/12/11 02:33:37;;;;;;;14.15;7.82;;;;;;;4.69;59.44;100766.44;4945778;28;123051;-70
2021/12/11 02:36:27;;;;;;;16.15;7.57;;;;;;;4.68;59.27;100767.31;4940095;28;119025;-69
2021/12/11 02:39:12;;;;;;;12.52;7.18;;;;;;;4.68;59.53;100767.31;4936014;28;119572;-70
2021/12/11 02:42:04;;;;;;;15.63;7.93;;;;;;;4.66;59.53;100769.09;4933461;28;125227;-68
2021/12/11 02:44:47;;;;;;;17.13;7.65;;;;;;;4.64;59.38;100765.66;4940189;28;123546;-69
2021/12/11 02:47:22;;;;;;;20.27;8.02;;;;;;;4.63;59.47;100771.78;4942312;28;119571;-69
2021/12/11 02:50:00;;;;;;;24.63;9.30;;;;;;;4.61;59.50;100781.44;4937915;28;117704;-69
2021/12/11 02:52:51;;;;;;;18.40;8.70;;;;;;;4.58;59.57;100786.78;4940761;28;122893;-68
2021/12/11 02:55:32;;;;;;;19.63;8.77;;;;;;;4.58;59.57;100786.78;4953972;28;124358;-68
2021/12/11 02:58:07;;;;;;;20.25;9.07;;;;;;;4.58;59.51;100786.78;4936510;28;120707;-68
2021/12/11 03:00:41;;;;;;;24.80;9.27;;;;;;;4.59;59.63;100793.75;4940552;28;120616;-68
2021/12/11 03:03:12;;;;;;;37.45;9.38;;;;;;;4.58;59.73;100802.53;4938137;28;125198;-68
2021/12/11 03:05:57;;;;;;;24.80;9.27;;;;;;;4.58;59.65;100802.53;4935551;28;124134;-70
2021/12/11 03:08:24;;;;;;;31.02;9.60;;;;;;;4.58;59.72;100807.75;4922939;28;118591;-70
2021/12/11 03:10:56;;;;;;;23.73;8.68;;;;;;;4.57;59.91;100806.88;4942522;28;119751;-68
2021/12/11 03:13:24;;;;;;;23.27;8.82;;;;;;;4.59;59.93;100814.72;4932081;28;123235;-68
2021/12/11 03:15:51;;;;;;;26.08;8.40;;;;;;;4.59;59.91;100806.84;4940858;28;123769;-68
2021/12/11 03:18:18;;;;;;;23.75;9.27;;;;;;;4.62;59.90;100820.78;4936528;28;119017;-68
2021/12/11 03:20:48;;;;;;;30.55;8.77;;;;;;;4.65;60.17;100817.22;4943424;28;119387;-68
2021/12/11 03:23:16;;;;;;;20.77;9.02;;;;;;;4.68;60.04;100830.28;4944030;28;124885;-68
2021/12/11 03:25:45;;;;;;;25.30;9.38;;;;;;;4.70;60.65;100831.09;4941201;28;124287;-69
2021/12/11 03:28:15;;;;;;;29.02;9.77;;;;;;;4.73;60.16;100838.91;4942974;28;119553;-70
2021/12/11 03:30:50;;;;;;;33.22;9.25;;;;;;;4.76;60.16;100844.06;4946645;28;118826;-67
2021/12/11 03:33:19;;;;;;;30.38;9.60;;;;;;;4.80;60.30;100851.00;4946027;28;124502;-71
2021/12/11 03:35:47;;;;;;;31.90;9.15;;;;;;;4.81;60.40;100842.22;4932079;28;124034;-68
2021/12/11 03:38:16;;;;;;;25.95;8.85;;;;;;;4.82;60.46;100849.22;4947091;28;119087;-68
2021/12/11 03:40:45;;;;;;;23.27;8.77;;;;;;;4.83;60.36;100848.31;4944153;28;119129;-68
2021/12/11 03:43:16;;;;;;;20.65;8.93;;;;;;;4.85;60.32;100851.75;4934405;28;123208;-68
2021/12/11 03:45:47;;;;;;;18.67;8.50;;;;;;;4.87;60.21;100851.72;4944551;28;124635;-68
2021/12/11 03:48:23;;;;;;;20.17;8.63;;;;;;;4.88;60.22;100854.34;4945626;28;120364;-69
2021/12/11 03:50:51;;;;;;;21.35;8.30;;;;;;;4.89;60.16;100855.19;4940731;28;118869;-69
2021/12/11 03:53:19;;;;;;;18.83;8.57;;;;;;;4.91;60.38;100868.28;4937136;28;123416;-70
2021/12/11 03:55:52;;;;;;;19.65;8.25;;;;;;;4.91;60.54;100858.63;4937272;28;124629;-69
2021/12/11 03:58:19;;;;;;;19.80;9.35;;;;;;;4.93;60.25;100866.47;4945169;28;119065;-69
2021/12/11 04:00:59;;;;;;;20.55;8.60;;;;;;;4.93;60.43;100861.25;4942348;28;119233;-69
2021/12/11 04:03:30;;;;;;;19.65;8.60;;;;;;;4.95;60.26;100864.69;4943871;28;123901;-70
2021/12/11 04:05:59;;;;;;;22.88;8.60;;;;;;;4.96;60.29;100866.44;4939769;28;123492;-70
2021/12/11 04:08:37;;;;;;;21.58;9.30;;;;;;;4.96;60.54;100876.94;4942430;28;119364;-70
2021/12/11 04:11:05;;;;;;;21.92;8.40;;;;;;;4.95;60.32;100880.44;4939236;28;118453;-69
2021/12/11 04:13:32;;;;;;;22.42;8.57;;;;;;;4.94;60.34;100878.72;4944573;28;124127;-70
2021/12/11 04:15:59;;;;;;;24.00;8.55;;;;;;;4.93;60.51;100882.22;4944638;28;123870;-70
2021/12/11 04:18:27;;;;;;;20.73;8.93;;;;;;;4.94;60.32;100878.72;4939113;28;119110;-70
2021/12/11 04:20:54;;;;;;;20.55;8.05;;;;;;;4.95;60.48;100885.69;4942614;28;119212;-70
2021/12/11 04:23:22;;;;;;;22.92;8.85;;;;;;;4.95;60.53;100890.94;4927547;28;122861;-68
2021/12/11 04:25:51;;;;;;;26.25;9.18;;;;;;;4.95;60.33;100890.94;4937989;28;123859;-70
2021/12/11 04:28:21;;;;;;;20.02;8.70;;;;;;;4.94;60.56;100889.22;4933163;28;120520;-69
2021/12/11 04:30:52;;;;;;;24.38;8.45;;;;;;;4.92;60.42;100891.88;4942648;28;120469;-70
2021/12/11 04:33:19;;;;;;;18.35;8.88;;;;;;;4.90;60.57;100895.41;4938125;28;124122;-70
2021/12/11 04:35:47;;;;;;;24.08;9.15;;;;;;;4.90;60.27;100908.53;4946901;28;124056;-70
2021/12/11 04:38:15;;;;;;;22.50;9.15;;;;;;;4.88;60.49;100905.97;4939165;28;120088;-68
2021/12/11 04:40:47;;;;;;;23.33;9.65;;;;;;;4.86;60.41;100911.22;4937817;28;119717;-69
2021/12/11 04:43:18;;;;;;;22.85;9.43;;;;;;;4.88;60.62;100917.31;4936777;28;124418;-68
2021/12/11 04:45:49;;;;;;;21.17;9.30;;;;;;;4.88;60.54;100912.06;4938923;28;124193;-68
2021/12/11 04:51:31;;;;;;;19.20;9.73;;;;;;;4.93;60.70;100924.22;4932178;28;119887;-69
2021/12/11 04:54:21;;;;;;;19.52;9.10;;;;;;;4.93;60.84;100929.47;4944511;28;124013;-69
2021/12/11 04:57:07;;;;;;;22.05;9.38;;;;;;;4.94;60.73;100941.72;4940129;28;124247;-70
2021/12/11 05:00:07;;;;;;;19.25;9.77;;;;;;;4.96;60.50;100955.66;4943143;28;119211;-69
2021/12/11 05:10:59;;;;;;;23.17;10.20;;;;;;;5.01;60.76;100959.03;4940510;28;119521;-69
2021/12/11 05:13:29;;;;;;;21.15;10.20;;;;;;;5.05;60.81;100960.72;4933898;28;119675;-69
2021/12/11 05:16:02;;;;;;;21.80;9.75;;;;;;;5.09;61.01;100972.91;4937786;28;123839;-70
2021/12/11 05:18:31;;;;;;;22.08;10.32;;;;;;;5.14;60.76;100984.19;4939972;28;123719;-70
2021/12/11 05:21:03;;;;;;;24.75;10.60;;;;;;;5.17;61.00;100986.72;4939163;28;119221;-68
2021/12/11 05:23:31;;;;;;;22.80;10.55;;;;;;;5.19;60.88;100990.16;4932774;28;119242;-68
2021/12/11 05:25:58;;;;;;;19.70;9.75;;;;;;;5.23;61.02;100986.59;4947659;28;123894;-68
2021/12/11 05:28:26;;;;;;;23.67;10.43;;;;;;;5.25;60.92;100995.31;4940762;28;123909;-68
2021/12/11 05:30:55;;;;;;;20.13;10.10;;;;;;;5.29;60.86;100997.88;4943124;28;121008;-67
2021/12/11 05:33:23;;;;;;;22.35;10.02;;;;;;;5.31;60.69;101003.94;4943721;28;120361;-70
2021/12/11 05:35:51;;;;;;;21.88;10.48;;;;;;;5.34;60.98;100998.66;4943494;28;124194;-69
2021/12/11 05:38:22;;;;;;;21.52;10.35;;;;;;;5.36;60.90;101004.72;4952764;28;123891;-69
2021/12/11 05:40:56;;;;;;;24.58;10.95;;;;;;;5.38;60.81;101000.31;4945677;28;119060;-69
2021/12/11 05:43:23;;;;;;;21.13;10.00;;;;;;;5.40;60.77;101006.38;4946207;28;118823;-68
2021/12/11 05:45:51;;;;;;;26.73;11.15;;;;;;;5.42;61.03;101001.97;4945998;28;123853;-68
2021/12/11 05:48:19;;;;;;;26.70;11.30;;;;;;;5.43;60.80;101008.97;4939702;28;123632;-68
2021/12/11 05:50:54;;;;;;;24.10;11.20;;;;;;;5.45;61.08;101012.41;4948453;28;118836;-68
2021/12/11 05:53:22;;;;;;;22.65;10.63;;;;;;;5.47;60.98;101015.88;4943358;28;118973;-69
2021/12/11 05:55:53;;;;;;;25.50;10.88;;;;;;;5.50;61.01;101014.94;4948680;28;124339;-69
2021/12/11 06:01:07;;;;;;;24.63;10.15;;;;;;;5.50;60.79;101015.81;4941372;28;120525;-69
2021/12/11 06:03:37;;;;;;;26.58;11.02;;;;;;;5.52;61.21;101027.16;4941912;28;119534;-69
2021/12/11 06:06:05;;;;;;;26.05;10.80;;;;;;;5.53;61.21;101028.88;4943015;28;123836;-69
2021/12/11 06:08:33;;;;;;;23.75;10.70;;;;;;;5.54;60.95;101027.97;4930480;28;123343;-69
2021/12/11 06:11:02;;;;;;;23.77;10.68;;;;;;;5.55;61.23;101027.06;4943102;28;118095;-69
2021/12/11 06:13:29;;;;;;;26.40;11.25;;;;;;;5.57;61.21;101033.16;4949869;28;119104;-69
2021/12/11 06:15:59;;;;;;;28.88;11.45;;;;;;;5.59;61.23;101036.59;4948064;28;124509;-69
2021/12/11 06:18:26;;;;;;;24.33;10.90;;;;;;;5.63;61.42;101038.31;4944403;28;123660;-69
2021/12/11 06:20:53;;;;;;;26.85;11.02;;;;;;;5.65;61.17;101047.00;4938846;28;120762;-70
2021/12/11 06:23:22;;;;;;;24.38;11.15;;;;;;;5.70;61.12;101046.91;4946074;28;120262;-69
2021/12/11 06:25:51;;;;;;;28.63;11.35;;;;;;;5.72;61.30;101052.13;4951515;28;124117;-70
2021/12/11 06:28:18;;;;;;;25.52;11.57;;;;;;;5.75;61.30;101062.59;4943832;28;124151;-69
2021/12/11 06:30:45;;;;;;;22.80;10.45;;;;;;;5.80;61.21;101066.84;4947366;28;119496;-70
2021/12/11 06:33:13;;;;;;;22.95;10.65;;;;;;;5.82;61.19;101066.78;4941682;28;118714;-70
2021/12/11 06:35:51;;;;;;;23.85;10.63;;;;;;;5.86;61.06;101065.84;4935769;28;124562;-71
2021/12/11 06:38:22;;;;;;;22.67;10.70;;;;;;;5.86;61.30;101065.84;4935806;28;123676;-69
2021/12/11 06:40:50;;;;;;;23.17;10.70;;;;;;;5.88;61.04;101064.03;4940679;28;119076;-69
2021/12/11 06:43:17;;;;;;;23.75;9.93;;;;;;;5.87;61.13;101067.56;4944185;28;119531;-69
2021/12/11 06:45:46;;;;;;;22.00;9.98;;;;;;;5.87;61.08;101072.81;4932754;28;124339;-69
2021/12/11 06:48:15;;;;;;;22.90;10.32;;;;;;;5.87;61.11;101067.56;4939790;28;124410;-69
2021/12/11 06:50:45;;;;;;;24.75;10.45;;;;;;;5.87;61.06;101071.97;4944575;28;119202;-68
2021/12/11 06:53:27;;;;;;;24.83;10.90;;;;;;;5.85;60.97;101079.88;4939383;28;119666;-68
2021/12/11 06:55:54;;;;;;;22.98;9.93;;;;;;;5.85;61.46;101079.88;4937421;28;124122;-69
2021/12/11 06:58:21;;;;;;;22.30;10.13;;;;;;;5.85;61.07;101080.72;4941444;28;123911;-71
2021/12/11 07:00:49;;;;;;;24.85;11.07;;;;;;;5.86;61.16;101086.88;4943121;28;119581;-71
2021/12/11 07:03:17;;;;;;;24.95;11.40;;;;;;;5.88;61.57;101090.31;4943886;28;118884;-69
2021/12/11 07:05:44;;;;;;;24.17;10.60;;;;;;;5.89;61.53;101086.78;4936550;28;124164;-69
2021/12/11 07:08:12;;;;;;;26.55;10.73;;;;;;;5.93;61.43;101093.69;4943064;28;124363;-69
2021/12/11 07:10:41;;;;;;;25.45;11.52;;;;;;;5.96;61.09;101098.94;4945472;28;120233;-68
2021/12/11 07:13:09;;;;;;;25.58;10.60;;;;;;;5.99;61.29;101104.13;4944444;28;119816;-68
2021/12/11 07:15:36;;;;;;;27.02;11.85;;;;;;;6.02;61.68;101104.06;4942522;28;124613;-69
2021/12/11 07:18:04;;;;;;;25.58;10.63;;;;;;;6.06;61.79;101114.50;4943510;28;124839;-69
2021/12/11 07:20:32;;;;;;;28.00;11.10;;;;;;;6.10;61.68;101113.53;4937872;28;118144;-69
2021/12/11 07:23:00;;;;;;;30.58;11.05;;;;;;;6.15;61.50;101116.94;4947644;28;118654;-69
2021/12/11 07:25:33;;;;;;;26.40;10.88;;;;;;;6.18;61.68;101114.25;4941922;28;123456;-69
2021/12/11 07:28:04;;;;;;;28.40;11.93;;;;;;;6.22;61.76;101132.53;4945393;28;123967;-69
2021/12/11 07:30:33;;;;;;;28.13;11.82;;;;;;;6.24;61.72;101140.41;4954027;28;118758;-69
2021/12/11 07:33:02;;;;;;;32.10;11.63;;;;;;;6.28;61.91;101126.28;4927082;28;117879;-69
2021/12/11 07:35:29;;;;;;;24.50;10.63;;;;;;;6.32;61.86;101129.72;4939651;28;124078;-70
2021/12/11 07:37:56;;;;;;;26.20;11.52;;;;;;;6.34;61.74;101120.88;4941321;28;123891;-70
2021/12/11 07:40:27;;;;;;;28.40;11.32;;;;;;;6.37;61.75;101120.81;4934830;28;118271;-70
2021/12/11 07:42:55;;;;;;;31.52;11.85;;;;;;;6.38;62.00;101122.53;4943029;28;119460;-70
2021/12/11 07:45:26;;;;;;;27.13;11.43;;;;;;;6.41;62.13;101133.00;4941149;28;123826;-70
2021/12/11 07:47:54;;;;;;;27.23;11.18;;;;;;;6.46;62.24;101129.38;4933737;28;123703;-69
2021/12/11 07:50:23;;;;;;;29.92;12.55;;;;;;;6.50;62.03;101136.28;4940270;28;119512;-70
2021/12/11 07:52:51;;;;;;;28.75;11.20;;;;;;;6.55;61.86;101131.81;4945614;28;118729;-70
2021/12/11 07:55:18;;;;;;;24.95;10.90;;;;;;;6.59;62.21;101130.81;4936900;28;124025;-70
2021/12/11 07:57:45;;;;;;;27.77;11.48;;;;;;;6.63;61.89;101137.75;4939970;28;123542;-70
2021/12/11 08:00:18;;;;;;;29.55;11.90;;;;;;;6.68;62.33;101146.38;4952205;28;119828;-70
2021/12/11 08:02:46;;;;;;;27.33;11.70;;;;;;;6.71;61.95;101146.34;4946586;28;120533;-70
2021/12/11 08:05:13;;;;;;;31.88;11.98;;;;;;;6.75;62.40;101158.50;4944786;28;123891;-70
2021/12/11 08:07:41;;;;;;;27.30;11.70;;;;;;;6.81;62.22;101157.50;4943836;28;124621;-70
2021/12/11 08:10:23;;;;;;;30.60;12.27;;;;;;;6.87;62.01;101167.00;4943129;28;119341;-70
2021/12/11 08:12:50;;;;;;;34.92;12.98;;;;;;;6.91;62.08;101160.75;4933149;28;118988;-70
2021/12/11 08:15:18;;;;;;;32.22;12.52;;;;;;;6.95;62.31;101178.22;4954453;28;125346;-71
2021/12/11 08:17:54;;;;;;;33.45;13.45;;;;;;;6.98;62.18;101176.38;4937710;28;124518;-71
2021/12/11 08:20:28;;;;;;;32.33;13.57;;;;;;;7.05;62.24;101192.91;4934271;28;119253;-70
2021/12/11 08:22:57;;;;;;;36.97;13.30;;;;;;;7.10;62.23;101188.38;4935308;28;119884;-71
2021/12/11 08:25:28;;;;;;;31.90;13.77;;;;;;;7.15;62.44;101189.13;4930698;28;123570;-71
2021/12/11 08:27:57;;;;;;;32.03;13.30;;;;;;;7.18;62.24;101196.94;4935448;28;123923;-71
2021/12/11 08:30:27;;;;;;;29.25;13.30;;;;;;;7.22;62.51;101211.78;4937382;28;119006;-71
2021/12/11 08:32:55;;;;;;;34.70;13.13;;;;;;;7.28;62.57;101215.16;4944395;28;120103;-70
2021/12/11 08:35:22;;;;;;;34.72;13.50;;;;;;;7.34;62.58;101212.38;4942739;28;122866;-71
2021/12/11 08:37:51;;;;;;;32.03;12.18;;;;;;;7.40;62.57;101214.81;4940833;28;124373;-71
2021/12/11 08:40:22;;;;;;;31.25;12.88;;;;;;;7.45;62.50;101223.50;4941754;28;119291;-69
2021/12/11 08:42:50;;;;;;;26.60;12.38;;;;;;;7.50;62.45;101221.59;4938269;28;118900;-70
2021/12/11 08:45:24;;;;;;;29.67;12.90;;;;;;;7.56;62.69;101218.81;4942760;28;124841;-70
2021/12/11 08:47:59;;;;;;;28.90;12.37;;;;;;;7.62;62.29;101224.81;4943213;28;123681;-70
2021/12/11 08:50:31;;;;;;;28.50;13.15;;;;;;;7.67;62.63;101222.94;4946446;28;120028;-70
2021/12/11 08:52:58;;;;;;;29.17;12.77;;;;;;;7.72;62.42;101215.75;4940979;28;119633;-70
2021/12/11 08:55:29;;;;;;;27.75;12.18;;;;;;;7.77;62.58;101232.31;4950700;28;123553;-71
2021/12/11 08:57:58;;;;;;;25.35;12.13;;;;;;;7.81;62.32;101231.31;4950763;28;123522;-70
2021/12/11 09:00:51;;;;;;;26.90;11.85;;;;;;;7.85;62.55;101237.38;4939570;28;119404;-71
2021/12/11 09:03:42;;;;;;;28.60;11.93;;;;;;;7.88;62.40;101238.16;4944251;28;119137;-71
2021/12/11 09:06:10;;;;;;;27.63;11.52;;;;;;;7.91;62.61;101246.00;4925375;28;124343;-70
2021/12/11 09:09:05;;;;;;;27.30;11.98;;;;;;;7.96;62.60;101252.00;4956449;28;124143;-70
2021/12/11 09:11:47;;;;;;;26.57;11.73;;;;;;;8.01;62.40;101249.25;4940718;28;119600;-71
2021/12/11 09:14:26;;;;;;;25.73;11.75;;;;;;;8.05;62.15;101255.31;4953544;28;119276;-71
2021/12/11 09:17:02;;;;;;;21.80;9.90;;;;;;;8.09;62.33;101262.22;4945277;28;123257;-71
2021/12/11 09:19:41;;;;;;;21.30;9.95;;;;;;;8.12;62.60;101268.28;4948212;28;123885;-71
2021/12/11 09:22:28;;;;;;;21.33;10.25;;;;;;;8.15;62.31;101273.44;4949852;28;119378;-71
2021/12/11 09:25:03;;;;;;;24.83;10.30;;;;;;;8.20;62.47;101286.53;4949432;28;118206;-71
2021/12/11 09:27:49;;;;;;;25.80;10.30;;;;;;;8.23;62.84;101291.72;4949023;28;124504;-71
2021/12/11 09:30:22;;;;;;;22.15;10.02;;;;;;;8.27;62.31;101298.66;4933388;28;123178;-70
2021/12/11 09:32:55;;;;;;;18.45;9.50;;;;;;;8.29;62.62;101301.25;4969545;28;119125;-71
2021/12/11 09:35:36;;;;;;;21.13;8.95;;;;;;;8.31;62.83;101305.56;4950742;28;118791;-71
2021/12/11 09:38:09;;;;;;;20.02;9.48;;;;;;;8.34;62.42;101310.75;4949239;28;123025;-71
2021/12/11 09:40:37;;;;;;;20.73;10.70;;;;;;;8.36;62.80;101313.34;4947876;28;123513;-71
2021/12/11 09:43:04;;;;;;;27.20;12.23;;;;;;;8.39;62.55;101319.41;4949709;28;120097;-71
2021/12/11 09:45:40;;;;;;;26.80;11.32;;;;;;;8.41;62.57;101331.69;4949732;28;119994;-71
2021/12/11 09:48:15;;;;;;;27.00;11.85;;;;;;;8.43;62.46;101335.19;4947813;28;124618;-71
2021/12/11 09:50:53;;;;;;;27.77;11.38;;;;;;;8.43;62.62;101338.69;4947920;28;124908;-71
2021/12/11 09:53:25;;;;;;;25.80;11.27;;;;;;;8.43;62.27;101343.09;4948826;28;119371;-70
2021/12/11 09:55:55;;;;;;;29.08;11.80;;;;;;;8.41;62.36;101352.81;4945928;28;119248;-71
2021/12/11 09:58:27;;;;;;;23.63;10.88;;;;;;;8.39;62.41;101361.63;4947741;28;123903;-71
2021/12/11 10:01:03;;;;;;;28.27;11.38;;;;;;;8.39;62.47;101377.47;4924992;28;123395;-71
2021/12/11 10:03:38;;;;;;;24.15;11.35;;;;;;;8.37;62.58;101384.56;4964544;28;119267;-71
2021/12/11 10:06:26;;;;;;;23.38;10.80;;;;;;;8.34;62.63;101384.66;4951061;28;118956;-72
2021/12/11 10:09:17;;;;;;;24.58;11.32;;;;;;;8.33;62.40;101387.34;4947231;28;124562;-71
2021/12/11 10:12:06;;;;;;;29.38;11.23;;;;;;;8.30;62.31;101392.69;4944709;28;123627;-70
2021/12/11 10:14:40;;;;;;;29.02;11.27;;;;;;;8.27;62.55;101383.09;4934733;28;119165;-70
2021/12/11 10:17:20;;;;;;;25.08;11.15;;;;;;;8.29;62.49;101396.25;4928058;28;119000;-69
2021/12/11 10:19:50;;;;;;;21.08;10.90;;;;;;;8.28;62.76;101400.63;4925311;28;124149;-70
2021/12/11 10:22:27;;;;;;;24.63;11.95;;;;;;;8.30;62.47;101403.25;4927701;28;123845;-71
2021/12/11 10:24:55;;;;;;;23.13;11.50;;;;;;;8.29;62.69;101412.94;4923836;28;119619;-71
2021/12/11 10:27:26;;;;;;;24.17;11.98;;;;;;;8.28;62.92;101416.47;4928409;28;118335;-71
2021/12/11 10:29:55;;;;;;;28.05;12.23;;;;;;;8.29;62.94;101423.50;4927603;28;124299;-70
2021/12/11 10:32:26;;;;;;;25.33;11.77;;;;;;;8.29;62.63;101427.91;4927810;28;124847;-70
2021/12/11 10:34:57;;;;;;;22.73;11.32;;;;;;;8.29;62.88;101428.78;4928083;28;120901;-71
2021/12/11 10:37:35;;;;;;;25.42;11.07;;;;;;;8.28;62.78;101421.75;4929542;28;120065;-71
2021/12/11 10:40:15;;;;;;;25.50;11.63;;;;;;;8.26;62.73;101434.13;4927085;28;124635;-70
2021/12/11 10:42:48;;;;;;;25.00;11.15;;;;;;;8.25;62.43;101435.03;4925793;28;124343;-70
2021/12/11 10:45:17;;;;;;;26.25;11.50;;;;;;;8.26;62.62;101439.41;4929318;28;119233;-71
2021/12/11 10:47:50;;;;;;;22.52;11.75;;;;;;;8.27;62.84;101440.25;4928000;28;119124;-70
2021/12/11 10:50:26;;;;;;;24.55;11.80;;;;;;;8.28;62.93;101437.59;4926569;28;124779;-70
2021/12/11 10:52:54;;;;;;;24.80;11.45;;;;;;;8.29;62.88;101449.88;4929471;28;123846;-71
2021/12/11 10:55:25;;;;;;;23.63;11.07;;;;;;;8.30;62.77;101451.59;4929198;28;120032;-70
2021/12/11 10:57:54;;;;;;;28.33;11.82;;;;;;;8.33;62.89;101454.19;4928566;28;118986;-70
2021/12/11 11:00:28;;;;;;;25.50;11.38;;;;;;;8.35;62.87;101460.28;4926436;28;124479;-71
2021/12/11 11:02:57;;;;;;;23.10;10.77;;;;;;;8.37;63.16;101469.03;4928327;28;124188;-70
2021/12/11 11:05:28;;;;;;;23.67;11.18;;;;;;;8.38;62.70;101465.50;4927673;28;118932;-71
2021/12/11 11:07:55;;;;;;;28.02;11.88;;;;;;;8.42;62.85;101468.06;4925812;28;118121;-70
2021/12/11 11:10:31;;;;;;;24.92;10.98;;;;;;;8.42;62.94;101475.97;4928374;28;123894;-70
2021/12/11 11:13:01;;;;;;;24.17;10.93;;;;;;;8.45;62.82;101481.19;4926489;28;125050;-71
2021/12/11 11:15:30;;;;;;;22.48;10.82;;;;;;;8.48;62.97;101494.31;4928841;28;118745;-70
2021/12/11 11:17:58;;;;;;;22.45;10.43;;;;;;;8.52;62.80;101493.34;4928948;28;118700;-71
2021/12/11 11:20:35;;;;;;;22.23;10.98;;;;;;;8.53;63.14;101495.94;4929019;28;123606;-70
2021/12/11 11:23:05;;;;;;;21.63;10.93;;;;;;;8.57;62.67;101507.28;4925829;28;124515;-71
2021/12/11 11:25:38;;;;;;;22.08;10.93;;;;;;;8.59;62.82;101505.47;4928723;28;122273;-71
2021/12/11 11:28:10;;;;;;;22.27;10.90;;;;;;;8.63;62.73;101512.41;4926121;28;119524;-71
2021/12/11 11:30:42;;;;;;;21.30;10.85;;;;;;;8.66;62.76;101517.56;4927243;28;124944;-70
2021/12/11 11:33:14;;;;;;;22.35;10.93;;;;;;;8.69;62.79;101528.06;4929830;28;124057;-70
2021/12/11 11:35:44;;;;;;;20.85;10.60;;;;;;;8.71;62.73;101526.25;4928348;28;119841;-70
2021/12/11 11:38:17;;;;;;;23.48;12.18;;;;;;;8.75;63.09;101533.19;4925843;28;118904;-70
2021/12/11 11:40:47;;;;;;;20.08;10.43;;;;;;;8.80;63.18;101550.69;4928110;28;123774;-71
2021/12/11 11:43:17;;;;;;;21.65;10.57;;;;;;;8.84;62.73;101547.06;4938453;28;123712;-68
2021/12/11 11:45:52;;;;;;;24.52;10.93;;;;;;;8.86;62.87;101546.13;4930406;28;117374;-70
2021/12/11 11:48:29;;;;;;;22.08;10.60;;;;;;;8.88;63.14;101546.09;4945293;28;119559;-71
2021/12/11 11:51:15;;;;;;;27.13;12.10;;;;;;;8.91;63.12;101553.91;4925529;28;123746;-71
2021/12/11 11:53:42;;;;;;;24.05;11.30;;;;;;;8.96;63.07;101552.00;4927353;28;123965;-71